sensor_id;sensor_type;location;lat;lon;timestamp;P1;durP1;ratioP1;P2;durP2;ratioP2
62863;SDS011;48954;59.950;11.014;2023-01-24T00:00:07;29.60;;;9.30;;
62863;SDS011;48954;59.950;11.014;2023-01-24T00:02:56;24.40;;;9.20;;
62863;SDS011;48954;59.950;11.014;2023-01-24T00:05:22;20.00;;;8.50;;
62863;SDS011;48954;59.950;11.014;2023-01-24T00:07:47;23.30;;;9.00;;
62863;SDS011;48954;59.950;11.014;2023-01-24T00:10:13;23.90;;;8.90;;
62863;SDS011;48954;59.950;11.014;2023-01-24T00:12:40;25.60;;;8.50;;
62863;SDS011;48954;59.950;11.014;2023-01-24T00:15:07;28.30;;;9.40;;
62863;SDS011;48954;59.950;11.014;2023-01-24T00:17:34;24.40;;;9.00;;
62863;SDS011;48954;59.950;11.014;2023-01-24T00:20:00;22.00;;;8.10;;
62863;SDS011;48954;59.950;11.014;2023-01-24T00:22:25;30.30;;;9.30;;
62863;SDS011;48954;59.950;11.014;2023-01-24T00:24:53;24.40;;;9.10;;
62863;SDS011;48954;59.950;11.014;2023-01-24T00:27:19;26.30;;;9.10;;
62863;SDS011;48954;59.950;11.014;2023-01-24T00:29:44;28.10;;;8.30;;
62863;SDS011;48954;59.950;11.014;2023-01-24T00:32:10;20.40;;;7.20;;
62863;SDS011;48954;59.950;11.014;2023-01-24T00:34:36;27.90;;;9.80;;
62863;SDS011;48954;59.950;11.014;2023-01-24T00:37:02;26.40;;;8.60;;
62863;SDS011;48954;59.950;11.014;2023-01-24T00:39:28;22.80;;;7.90;;
62863;SDS011;48954;59.950;11.014;2023-01-24T00:41:53;20.90;;;8.30;;
62863;SDS011;48954;59.950;11.014;2023-01-24T00:44:19;22.70;;;7.80;;
62863;SDS011;48954;59.950;11.014;2023-01-24T00:46:45;26.70;;;8.20;;
62863;SDS011;48954;59.950;11.014;2023-01-24T00:49:11;27.10;;;8.90;;
62863;SDS011;48954;59.950;11.014;2023-01-24T00:51:37;22.00;;;8.10;;
62863;SDS011;48954;59.950;11.014;2023-01-24T00:54:03;30.30;;;8.80;;
62863;SDS011;48954;59.950;11.014;2023-01-24T00:56:29;24.50;;;8.30;;
62863;SDS011;48954;59.950;11.014;2023-01-24T00:58:55;26.00;;;8.80;;
62863;SDS011;48954;59.950;11.014;2023-01-24T01:01:20;21.60;;;8.80;;
62863;SDS011;48954;59.950;11.014;2023-01-24T01:03:47;19.20;;;7.30;;
62863;SDS011;48954;59.950;11.014;2023-01-24T01:06:15;20.40;;;8.30;;
62863;SDS011;48954;59.950;11.014;2023-01-24T01:08:41;18.00;;;6.60;;
62863;SDS011;48954;59.950;11.014;2023-01-24T01:11:08;18.20;;;6.50;;
62863;SDS011;48954;59.950;11.014;2023-01-24T01:13:34;20.00;;;7.20;;
62863;SDS011;48954;59.950;11.014;2023-01-24T01:16:02;22.00;;;6.50;;
62863;SDS011;48954;59.950;11.014;2023-01-24T01:18:29;18.40;;;7.80;;
62863;SDS011;48954;59.950;11.014;2023-01-24T01:20:56;22.10;;;7.70;;
62863;SDS011;48954;59.950;11.014;2023-01-24T01:23:22;36.00;;;11.60;;
62863;SDS011;48954;59.950;11.014;2023-01-24T01:25:49;26.20;;;9.80;;
62863;SDS011;48954;59.950;11.014;2023-01-24T01:28:15;35.70;;;11.90;;
62863;SDS011;48954;59.950;11.014;2023-01-24T01:30:42;28.30;;;10.30;;
62863;SDS011;48954;59.950;11.014;2023-01-24T01:33:08;34.40;;;12.80;;
62863;SDS011;48954;59.950;11.014;2023-01-24T01:35:35;35.10;;;13.40;;
62863;SDS011;48954;59.950;11.014;2023-01-24T01:38:01;31.40;;;11.50;;
62863;SDS011;48954;59.950;11.014;2023-01-24T01:40:27;34.70;;;13.40;;
62863;SDS011;48954;59.950;11.014;2023-01-24T01:42:54;27.90;;;9.90;;
62863;SDS011;48954;59.950;11.014;2023-01-24T01:48:53;17.50;;;6.70;;
62863;SDS011;48954;59.950;11.014;2023-01-24T01:51:20;21.10;;;7.20;;
62863;SDS011;48954;59.950;11.014;2023-01-24T01:56:29;19.50;;;7.30;;
62863;SDS011;48954;59.950;11.014;2023-01-24T01:59:13;23.30;;;7.20;;
62863;SDS011;48954;59.950;11.014;2023-01-24T02:01:44;18.50;;;7.50;;
62863;SDS011;48954;59.950;11.014;2023-01-24T02:04:13;22.20;;;7.20;;
62863;SDS011;48954;59.950;11.014;2023-01-24T02:06:53;18.40;;;7.00;;
62863;SDS011;48954;59.950;11.014;2023-01-24T02:09:27;23.10;;;7.40;;
62863;SDS011;48954;59.950;11.014;2023-01-24T02:11:58;15.10;;;6.40;;
62863;SDS011;48954;59.950;11.014;2023-01-24T02:14:28;23.60;;;7.40;;
62863;SDS011;48954;59.950;11.014;2023-01-24T02:16:56;19.10;;;6.90;;
62863;SDS011;48954;59.950;11.014;2023-01-24T02:19:41;16.60;;;5.80;;
62863;SDS011;48954;59.950;11.014;2023-01-24T02:24:57;11.90;;;5.80;;
62863;SDS011;48954;59.950;11.014;2023-01-24T02:27:33;14.60;;;5.50;;
62863;SDS011;48954;59.950;11.014;2023-01-24T02:29:59;12.20;;;5.40;;
62863;SDS011;48954;59.950;11.014;2023-01-24T02:32:25;10.10;;;4.90;;
62863;SDS011;48954;59.950;11.014;2023-01-24T02:34:51;12.40;;;5.30;;
62863;SDS011;48954;59.950;11.014;2023-01-24T02:37:17;12.40;;;5.20;;
62863;SDS011;48954;59.950;11.014;2023-01-24T02:39:53;12.60;;;5.30;;
62863;SDS011;48954;59.950;11.014;2023-01-24T02:42:24;13.50;;;5.20;;
62863;SDS011;48954;59.950;11.014;2023-01-24T02:44:58;8.70;;;4.30;;
62863;SDS011;48954;59.950;11.014;2023-01-24T02:47:35;12.40;;;5.20;;
62863;SDS011;48954;59.950;11.014;2023-01-24T02:50:08;11.30;;;4.30;;
62863;SDS011;48954;59.950;11.014;2023-01-24T02:52:35;11.80;;;4.70;;
62863;SDS011;48954;59.950;11.014;2023-01-24T02:55:01;10.60;;;4.60;;
62863;SDS011;48954;59.950;11.014;2023-01-24T02:57:35;11.60;;;5.10;;
62863;SDS011;48954;59.950;11.014;2023-01-24T03:00:04;9.50;;;4.00;;
62863;SDS011;48954;59.950;11.014;2023-01-24T03:02:32;8.30;;;4.10;;
62863;SDS011;48954;59.950;11.014;2023-01-24T03:04:59;11.60;;;4.10;;
62863;SDS011;48954;59.950;11.014;2023-01-24T03:07:28;14.00;;;4.80;;
62863;SDS011;48954;59.950;11.014;2023-01-24T03:09:55;9.50;;;4.30;;
62863;SDS011;48954;59.950;11.014;2023-01-24T03:12:29;14.80;;;4.50;;
62863;SDS011;48954;59.950;11.014;2023-01-24T03:15:10;7.60;;;4.00;;
62863;SDS011;48954;59.950;11.014;2023-01-24T03:17:50;9.60;;;3.70;;
62863;SDS011;48954;59.950;11.014;2023-01-24T03:20:20;7.20;;;3.60;;
62863;SDS011;48954;59.950;11.014;2023-01-24T03:23:01;6.70;;;3.70;;
62863;SDS011;48954;59.950;11.014;2023-01-24T03:25:42;6.80;;;3.00;;
62863;SDS011;48954;59.950;11.014;2023-01-24T03:28:23;7.40;;;3.60;;
62863;SDS011;48954;59.950;11.014;2023-01-24T03:31:05;6.80;;;3.00;;
62863;SDS011;48954;59.950;11.014;2023-01-24T03:33:47;6.80;;;3.40;;
62863;SDS011;48954;59.950;11.014;2023-01-24T03:36:31;5.80;;;3.50;;
62863;SDS011;48954;59.950;11.014;2023-01-24T03:39:13;5.80;;;3.30;;
62863;SDS011;48954;59.950;11.014;2023-01-24T03:42:35;6.60;;;3.60;;
62863;SDS011;48954;59.950;11.014;2023-01-24T03:45:36;8.10;;;3.60;;
62863;SDS011;48954;59.950;11.014;2023-01-24T03:48:57;6.00;;;3.50;;
62863;SDS011;48954;59.950;11.014;2023-01-24T03:51:39;6.50;;;3.20;;
62863;SDS011;48954;59.950;11.014;2023-01-24T03:54:48;7.50;;;3.10;;
62863;SDS011;48954;59.950;11.014;2023-01-24T03:57:36;5.10;;;3.10;;
62863;SDS011;48954;59.950;11.014;2023-01-24T04:00:35;6.60;;;2.80;;
62863;SDS011;48954;59.950;11.014;2023-01-24T04:12:21;6.40;;;3.30;;
62863;SDS011;48954;59.950;11.014;2023-01-24T10:28:07;20.80;;;9.10;;
62863;SDS011;48954;59.950;11.014;2023-01-24T10:33:29;27.70;;;12.30;;
62863;SDS011;48954;59.950;11.014;2023-01-24T10:36:00;28.20;;;12.50;;
62863;SDS011;48954;59.950;11.014;2023-01-24T10:38:31;36.60;;;14.60;;
62863;SDS011;48954;59.950;11.014;2023-01-24T10:41:07;46.50;;;17.60;;
62863;SDS011;48954;59.950;11.014;2023-01-24T10:43:39;53.20;;;18.10;;
62863;SDS011;48954;59.950;11.014;2023-01-24T10:46:23;45.60;;;18.00;;
62863;SDS011;48954;59.950;11.014;2023-01-24T10:48:58;63.30;;;22.00;;
62863;SDS011;48954;59.950;11.014;2023-01-24T10:51:27;35.50;;;16.70;;
62863;SDS011;48954;59.950;11.014;2023-01-24T10:54:02;54.80;;;20.60;;
62863;SDS011;48954;59.950;11.014;2023-01-24T10:56:28;48.20;;;19.40;;
62863;SDS011;48954;59.950;11.014;2023-01-24T10:58:55;51.60;;;20.10;;
62863;SDS011;48954;59.950;11.014;2023-01-24T11:01:35;46.20;;;17.40;;
62863;SDS011;48954;59.950;11.014;2023-01-24T11:04:13;70.30;;;25.10;;
62863;SDS011;48954;59.950;11.014;2023-01-24T11:06:45;35.70;;;16.30;;
62863;SDS011;48954;59.950;11.014;2023-01-24T11:09:16;26.90;;;12.60;;
62863;SDS011;48954;59.950;11.014;2023-01-24T11:11:49;21.80;;;10.40;;
62863;SDS011;48954;59.950;11.014;2023-01-24T11:14:17;27.70;;;11.40;;
62863;SDS011;48954;59.950;11.014;2023-01-24T11:16:47;25.90;;;11.50;;
62863;SDS011;48954;59.950;11.014;2023-01-24T11:21:53;24.80;;;11.80;;
62863;SDS011;48954;59.950;11.014;2023-01-24T11:24:23;23.70;;;10.80;;
62863;SDS011;48954;59.950;11.014;2023-01-24T11:29:20;18.50;;;7.50;;
62863;SDS011;48954;59.950;11.014;2023-01-24T11:31:53;20.00;;;8.90;;
62863;SDS011;48954;59.950;11.014;2023-01-24T11:42:46;14.10;;;6.60;;
62863;SDS011;48954;59.950;11.014;2023-01-24T11:50:54;22.80;;;10.10;;
62863;SDS011;48954;59.950;11.014;2023-01-24T11:53:33;18.00;;;8.60;;
62863;SDS011;48954;59.950;11.014;2023-01-24T11:59:07;16.30;;;7.10;;
62863;SDS011;48954;59.950;11.014;2023-01-24T12:07:21;18.70;;;7.90;;
62863;SDS011;48954;59.950;11.014;2023-01-24T12:09:59;19.40;;;8.20;;
62863;SDS011;48954;59.950;11.014;2023-01-24T12:12:49;15.00;;;6.80;;
62863;SDS011;48954;59.950;11.014;2023-01-24T12:23:42;27.50;;;12.10;;
62863;SDS011;48954;59.950;11.014;2023-01-24T12:26:16;27.80;;;13.10;;
62863;SDS011;48954;59.950;11.014;2023-01-24T12:29:41;30.10;;;12.10;;
62863;SDS011;48954;59.950;11.014;2023-01-24T12:32:36;27.90;;;12.00;;
62863;SDS011;48954;59.950;11.014;2023-01-24T12:35:37;25.40;;;12.20;;
62863;SDS011;48954;59.950;11.014;2023-01-24T12:38:38;28.20;;;12.40;;
62863;SDS011;48954;59.950;11.014;2023-01-24T13:32:17;21.70;;;9.80;;
62863;SDS011;48954;59.950;11.014;2023-01-24T14:07:45;28.60;;;11.50;;
62863;SDS011;48954;59.950;11.014;2023-01-24T14:22:20;47.70;;;15.30;;
62863;SDS011;48954;59.950;11.014;2023-01-24T14:37:03;50.90;;;19.30;;
62863;SDS011;48954;59.950;11.014;2023-01-24T16:21:32;100.00;;;28.20;;
62863;SDS011;48954;59.950;11.014;2023-01-24T16:24:41;81.90;;;27.30;;
62863;SDS011;48954;59.950;11.014;2023-01-24T18:16:09;83.70;;;27.30;;
62863;SDS011;48954;59.950;11.014;2023-01-24T21:17:13;119.30;;;25.70;;
62863;SDS011;48954;59.950;11.014;2023-01-24T21:20:30;114.60;;;27.70;;
62863;SDS011;48954;59.950;11.014;2023-01-24T22:16:19;77.30;;;20.10;;
